createdAt,value
2023-02-22T00:03:26.261Z,18.20
2023-02-22T00:07:27.348Z,20.37
2023-02-22T00:11:28.553Z,20.33
2023-02-22T00:15:29.779Z,19.00
2023-02-22T00:19:31.094Z,18.87
2023-02-22T00:23:32.295Z,18.77
2023-02-22T00:27:33.407Z,18.03
2023-02-22T00:31:36.809Z,18.33
2023-02-22T00:35:38.483Z,18.27
2023-02-22T00:39:39.505Z,19.37
2023-02-22T00:43:40.777Z,18.77
2023-02-22T00:47:41.906Z,20.67
2023-02-22T00:51:42.970Z,20.53
2023-02-22T00:55:44.117Z,30.03
2023-02-22T00:59:45.238Z,22.23
2023-02-22T01:03:46.268Z,25.30
2023-02-22T01:07:48.807Z,19.77
2023-02-22T01:11:54.891Z,19.50
2023-02-22T01:15:56.247Z,19.23
2023-02-22T01:19:57.432Z,22.87
2023-02-22T01:23:58.604Z,28.40
2023-02-22T01:28:00.992Z,29.67
2023-02-22T01:32:05.125Z,27.77
2023-02-22T01:36:08.824Z,28.30
2023-02-22T01:40:16.790Z,37.87
2023-02-22T01:44:32.843Z,26.30
2023-02-22T01:48:37.788Z,24.73
2023-02-22T01:52:38.784Z,22.00
2023-02-22T01:56:44.351Z,22.57
2023-02-22T02:00:45.642Z,24.67
2023-02-22T02:04:48.209Z,24.27
2023-02-22T02:09:02.297Z,25.23
2023-02-22T02:13:03.385Z,35.00
2023-02-22T02:17:06.371Z,39.97
2023-02-22T02:21:26.347Z,27.73
2023-02-22T02:26:03.295Z,34.63
2023-02-22T02:30:20.367Z,34.77
2023-02-22T02:34:36.930Z,35.37
2023-02-22T02:38:50.653Z,36.23
2023-02-22T02:43:07.516Z,41.03
2023-02-22T02:47:20.714Z,30.50
2023-02-22T02:51:25.613Z,30.83
2023-02-22T02:55:29.551Z,34.87
2023-02-22T02:59:33.328Z,37.40
2023-02-22T03:03:47.141Z,35.53
2023-02-22T03:08:13.250Z,30.40
2023-02-22T03:12:21.029Z,36.43
2023-02-22T03:16:29.136Z,39.13
2023-02-22T03:20:48.758Z,45.53
2023-02-22T03:25:08.968Z,59.53
2023-02-22T03:29:12.742Z,61.93
2023-02-22T03:33:35.689Z,62.60
2023-02-22T03:37:43.534Z,56.33
2023-02-22T03:41:50.909Z,58.13
2023-02-22T03:45:52.745Z,62.77
2023-02-22T03:50:14.741Z,62.90
2023-02-22T03:54:16.341Z,57.03
2023-02-22T03:58:21.203Z,62.13
2023-02-22T04:02:23.077Z,66.73
2023-02-22T04:06:24.247Z,66.77
2023-02-22T04:10:25.489Z,66.63
2023-02-22T04:14:28.781Z,51.00
2023-02-22T04:18:29.323Z,50.43
2023-02-22T04:22:30.326Z,54.43
2023-02-22T04:26:31.453Z,49.73
2023-02-22T04:30:32.683Z,53.70
2023-02-22T04:34:33.813Z,43.03
2023-02-22T04:38:34.953Z,44.60
2023-02-22T04:42:37.152Z,31.57
2023-02-22T04:46:38.388Z,28.60
2023-02-22T04:50:40.012Z,39.80
2023-02-22T04:54:41.081Z,29.63
2023-02-22T04:58:42.085Z,26.70
2023-02-22T05:02:43.078Z,25.93
2023-02-22T05:06:44.201Z,28.53
2023-02-22T05:10:45.446Z,30.97
2023-02-22T05:14:46.531Z,28.17
2023-02-22T05:18:47.538Z,33.03
2023-02-22T05:22:48.961Z,28.90
2023-02-22T05:26:50.617Z,36.93
2023-02-22T05:30:51.740Z,29.53
2023-02-22T05:34:52.867Z,34.00
2023-02-22T05:38:54.682Z,27.50
2023-02-22T05:42:56.326Z,37.70
2023-02-22T05:46:57.443Z,51.63
2023-02-22T05:50:58.768Z,42.83
2023-02-22T05:54:59.865Z,38.87
2023-02-22T05:59:00.985Z,65.10
2023-02-22T06:03:04.913Z,74.90
2023-02-22T06:07:06.009Z,79.53
2023-02-22T06:11:09.107Z,81.50
2023-02-22T06:15:10.516Z,83.73
2023-02-22T06:19:11.615Z,62.10
2023-02-22T06:23:12.750Z,101.27
2023-02-22T06:27:14.045Z,79.43
2023-02-22T06:31:15.302Z,39.67
2023-02-22T06:35:17.188Z,50.63
2023-02-22T06:39:18.487Z,54.77
2023-02-22T06:43:19.576Z,54.77
2023-02-22T06:47:21.003Z,51.53
2023-02-22T06:51:22.541Z,55.53
2023-02-22T06:55:28.128Z,44.93
2023-02-22T06:59:29.238Z,46.50
2023-02-22T07:03:30.252Z,49.73
2023-02-22T07:07:31.341Z,50.23
2023-02-22T07:11:32.296Z,60.20
2023-02-22T07:15:34.646Z,52.53
2023-02-22T07:19:35.887Z,67.93
2023-02-22T07:23:37.726Z,90.27
2023-02-22T07:27:41.016Z,63.87
2023-02-22T07:31:42.026Z,76.17
2023-02-22T07:35:46.500Z,42.60
2023-02-22T07:39:47.537Z,44.30
2023-02-22T07:43:48.485Z,43.67
2023-02-22T07:47:49.381Z,48.23
2023-02-22T07:51:50.552Z,49.00
2023-02-22T07:55:52.316Z,42.50
2023-02-22T07:59:53.310Z,36.27
2023-02-22T08:03:55.385Z,62.87
2023-02-22T08:07:56.923Z,42.07
2023-02-22T08:11:58.243Z,40.87
2023-02-22T08:15:59.541Z,46.57
2023-02-22T08:20:01.188Z,43.83
2023-02-22T08:24:02.462Z,47.57
2023-02-22T08:28:06.317Z,32.33
2023-02-22T08:32:07.580Z,31.80
2023-02-22T08:36:09.318Z,29.63
2023-02-22T08:40:12.810Z,24.20
2023-02-22T08:44:13.914Z,20.60
2023-02-22T08:48:15.958Z,24.63
2023-02-22T08:52:17.096Z,28.70
2023-02-22T08:56:18.759Z,26.83
2023-02-22T09:00:23.287Z,27.00
2023-02-22T09:04:24.368Z,24.17
2023-02-22T09:08:25.611Z,23.53
2023-02-22T09:12:26.696Z,22.40
2023-02-22T09:16:28.641Z,24.33
2023-02-22T09:20:30.432Z,23.57
2023-02-22T09:24:31.505Z,23.20
2023-02-22T09:28:32.643Z,22.70
2023-02-22T09:32:33.850Z,24.47
2023-02-22T09:36:35.028Z,22.57
2023-02-22T09:40:43.818Z,19.90
2023-02-22T09:44:57.688Z,22.93
2023-02-22T09:49:17.530Z,21.17
2023-02-22T09:53:27.528Z,18.77
2023-02-22T09:57:32.593Z,20.40
2023-02-22T10:01:43.470Z,20.27
2023-02-22T10:05:56.030Z,19.97
2023-02-22T10:09:58.339Z,21.60
2023-02-22T10:14:03.150Z,20.53
2023-02-22T10:18:23.270Z,21.70
2023-02-22T10:22:46.477Z,21.43
2023-02-22T10:26:48.140Z,21.70
2023-02-22T10:30:55.155Z,19.67
2023-02-22T10:34:59.950Z,20.53
2023-02-22T10:39:27.739Z,19.87
2023-02-22T10:43:29.527Z,20.20
2023-02-22T10:47:30.641Z,21.43
2023-02-22T10:51:32.265Z,19.80
2023-02-22T10:55:33.961Z,19.20
2023-02-22T10:59:37.859Z,19.63
2023-02-22T11:03:39.190Z,19.67
2023-02-22T11:07:42.193Z,18.50
2023-02-22T11:11:46.582Z,18.73
2023-02-22T11:15:47.667Z,19.43
2023-02-22T11:19:49.850Z,17.77
2023-02-22T11:23:54.751Z,21.47
2023-02-22T11:28:00.374Z,19.03
2023-02-22T11:32:14.598Z,19.27
2023-02-22T11:36:19.660Z,18.27
2023-02-22T11:40:22.577Z,15.73
2023-02-22T11:44:27.044Z,16.03
2023-02-22T11:48:31.598Z,18.90
2023-02-22T11:52:36.701Z,17.07
2023-02-22T11:56:47.327Z,17.77
2023-02-22T12:00:58.128Z,18.87
2023-02-22T12:05:07.516Z,17.97
2023-02-22T12:09:15.149Z,20.23
2023-02-22T12:13:32.275Z,20.30
2023-02-22T12:17:48.217Z,20.60
2023-02-22T12:21:51.394Z,21.10
2023-02-22T12:26:00.224Z,21.83
2023-02-22T12:30:05.322Z,23.33
2023-02-22T12:34:26.809Z,19.77
2023-02-22T12:38:39.701Z,21.20
2023-02-22T12:42:56.820Z,21.27
2023-02-22T12:47:00.122Z,20.30
2023-02-22T12:51:28.755Z,21.57
2023-02-22T12:55:45.597Z,22.77
2023-02-22T12:59:50.620Z,20.20
2023-02-22T13:03:53.672Z,19.53
2023-02-22T13:08:18.497Z,22.47
2023-02-22T13:12:32.388Z,20.17
2023-02-22T13:16:51.199Z,21.57
2023-02-22T13:20:57.147Z,22.07
2023-02-22T13:25:17.401Z,20.70
2023-02-22T13:29:22.551Z,21.03
2023-02-22T13:33:33.581Z,19.87
2023-02-22T13:38:10.437Z,20.63
2023-02-22T13:42:15.627Z,21.23
2023-02-22T13:46:40.279Z,21.20
2023-02-22T13:51:00.330Z,19.47
2023-02-22T13:55:06.655Z,18.63
2023-02-22T13:59:12.211Z,19.40
2023-02-22T14:03:17.242Z,19.60
2023-02-22T14:07:25.336Z,18.50
2023-02-22T14:11:36.415Z,18.27
2023-02-22T14:15:49.794Z,18.40
2023-02-22T14:20:18.431Z,18.27
2023-02-22T14:24:19.526Z,20.73
2023-02-22T14:28:45.594Z,17.00
2023-02-22T14:32:48.580Z,18.97
2023-02-22T14:37:10.081Z,19.87
2023-02-22T14:41:14.275Z,19.67
2023-02-22T14:45:29.909Z,20.83
2023-02-22T14:49:35.350Z,22.10
2023-02-22T14:53:39.574Z,19.47
2023-02-22T14:57:51.603Z,19.33
2023-02-22T15:02:13.341Z,20.87
2023-02-22T15:06:18.091Z,22.93
2023-02-22T15:10:23.386Z,24.00
2023-02-22T15:14:26.731Z,25.43
2023-02-22T15:18:32.138Z,22.43
2023-02-22T15:22:36.128Z,24.00
2023-02-22T15:26:52.002Z,23.90
2023-02-22T15:30:45.068Z,20.57
2023-02-22T15:34:46.376Z,19.53
2023-02-22T15:38:49.896Z,19.03
2023-02-22T15:42:53.076Z,21.83
2023-02-22T15:46:56.247Z,21.67
2023-02-22T15:51:08.523Z,19.53
2023-02-22T15:55:10.634Z,20.17
2023-02-22T15:59:14.631Z,21.77
2023-02-22T16:03:19.738Z,21.00
2023-02-22T16:07:23.593Z,23.37
2023-02-22T16:11:33.654Z,22.17
2023-02-22T16:15:35.334Z,20.77
2023-02-22T16:19:42.632Z,21.40
2023-02-22T16:23:49.620Z,21.97
2023-02-22T16:28:00.932Z,21.47
2023-02-22T16:32:03.160Z,25.03
2023-02-22T16:36:07.300Z,24.57
2023-02-22T16:40:15.598Z,22.63
2023-02-22T16:44:17.539Z,23.57
2023-02-22T16:48:24.396Z,25.13
2023-02-22T16:52:27.521Z,25.30
2023-02-22T16:56:31.171Z,27.37
2023-02-22T17:00:35.990Z,26.17
2023-02-22T17:04:37.164Z,28.07
2023-02-22T17:08:40.769Z,32.23
2023-02-22T17:12:44.665Z,31.77
2023-02-22T17:16:48.419Z,29.70
2023-02-22T17:20:50.796Z,28.77
2023-02-22T17:24:52.142Z,28.80
2023-02-22T17:28:53.415Z,29.87
2023-02-22T17:32:56.371Z,30.13
2023-02-22T17:36:57.852Z,28.37
2023-02-22T17:41:00.752Z,28.80
2023-02-22T17:45:01.957Z,31.37
2023-02-22T17:49:03.152Z,32.45
2023-02-22T17:53:04.854Z,31.77
2023-02-22T17:57:06.506Z,34.40
2023-02-22T18:01:29.329Z,32.20
2023-02-22T18:05:32.378Z,34.03
2023-02-22T18:09:41.258Z,34.47
2023-02-22T18:13:42.340Z,30.30
2023-02-22T18:17:45.008Z,30.67
2023-02-22T18:21:46.051Z,32.43
2023-02-22T18:26:00.240Z,32.23
2023-02-22T18:29:51.809Z,32.13
2023-02-22T18:33:53.035Z,32.37
2023-02-22T18:37:54.280Z,34.13
2023-02-22T18:41:56.019Z,37.20
2023-02-22T18:46:12.220Z,35.37
2023-02-22T18:50:16.111Z,35.57
2023-02-22T18:54:19.323Z,36.67
2023-02-22T18:58:20.556Z,39.37
2023-02-22T19:02:22.471Z,40.20
2023-02-22T19:06:24.330Z,59.63
2023-02-22T19:10:25.801Z,41.87
2023-02-22T19:14:27.073Z,40.67
2023-02-22T19:18:28.220Z,37.70
2023-02-22T19:22:31.279Z,37.87
2023-02-22T19:26:32.392Z,39.23
2023-02-22T19:30:33.457Z,35.78
2023-02-22T19:34:36.352Z,32.40
2023-02-22T19:38:38.267Z,31.87
2023-02-22T19:42:39.343Z,36.03
2023-02-22T19:46:40.711Z,33.03
2023-02-22T19:50:44.319Z,34.33
2023-02-22T19:54:45.521Z,42.07
2023-02-22T19:58:49.395Z,40.30
2023-02-22T20:03:00.721Z,40.33
2023-02-22T20:07:01.899Z,32.17
2023-02-22T20:11:04.103Z,34.70
2023-02-22T20:15:06.235Z,40.17
2023-02-22T20:19:07.413Z,53.37
2023-02-22T20:23:09.158Z,54.93
2023-02-22T20:27:12.616Z,52.03
2023-02-22T20:31:14.810Z,50.27
2023-02-22T20:35:16.498Z,48.70
2023-02-22T20:39:17.723Z,41.77
2023-02-22T20:43:19.031Z,35.93
2023-02-22T20:47:20.767Z,34.67
2023-02-22T20:51:22.608Z,36.77
2023-02-22T20:55:24.708Z,37.53
2023-02-22T20:59:28.385Z,36.80
2023-02-22T21:03:34.531Z,38.17
2023-02-22T21:07:35.662Z,43.00
2023-02-22T21:11:38.316Z,34.30
2023-02-22T21:15:43.101Z,35.80
2023-02-22T21:19:44.687Z,34.67
2023-02-22T21:23:49.407Z,38.00
2023-02-22T21:27:52.018Z,35.87
2023-02-22T21:31:54.165Z,35.90
2023-02-22T21:35:55.462Z,34.60
2023-02-22T21:39:58.573Z,38.77
2023-02-22T21:44:00.267Z,44.07
2023-02-22T21:48:02.009Z,34.33
2023-02-22T21:52:03.980Z,35.97
2023-02-22T21:56:05.971Z,38.40
2023-02-22T22:00:14.671Z,37.30
2023-02-22T22:04:22.913Z,45.43
2023-02-22T22:08:24.479Z,41.57
2023-02-22T22:12:37.429Z,44.43
2023-02-22T22:16:30.404Z,36.97
2023-02-22T22:20:33.405Z,38.37
2023-02-22T22:24:34.933Z,41.70
2023-02-22T22:28:38.137Z,41.17
2023-02-22T22:32:39.689Z,37.50
2023-02-22T22:36:41.243Z,44.47
2023-02-22T22:40:43.553Z,39.57
2023-02-22T22:44:46.613Z,39.10
2023-02-22T22:48:47.734Z,37.97
2023-02-22T22:52:48.700Z,37.70
2023-02-22T22:56:49.805Z,46.40
2023-02-22T23:00:52.825Z,35.30
2023-02-22T23:04:53.945Z,35.07
2023-02-22T23:08:59.460Z,35.43
2023-02-22T23:13:00.539Z,34.40
2023-02-22T23:17:04.866Z,36.17
2023-02-22T23:21:05.998Z,35.70
2023-02-22T23:25:08.083Z,38.50
2023-02-22T23:29:09.199Z,37.10
2023-02-22T23:33:10.184Z,33.60
2023-02-22T23:37:13.040Z,35.50
2023-02-22T23:41:18.792Z,34.37
2023-02-22T23:45:24.285Z,37.27
2023-02-22T23:49:26.907Z,43.00
2023-02-22T23:53:29.460Z,43.50
2023-02-22T23:57:32.101Z,39.60
